Time;durP1;ratioP1;P1;durP2;ratioP2;P2;SDS_P1;SDS_P2;PMS_P1;PMS_P2;Temp;Humidity;BMP_temperature;BMP_pressure;BME280_temperature;BME280_humidity;BME280_pressure;Samples;Min_cycle;Max_cycle;Signal;HPM_P1;HPM_P2
2022/05/31 00:01:51;;;;;;;7.57;5.18;;;;;;;;;;5009344;28;20213;-83
2022/05/31 00:04:17;;;;;;;10.43;4.55;;;;;;;;;;4989026;28;20037;-83
2022/05/31 00:06:43;;;;;;;8.27;4.30;;;;;;;;;;4993573;28;20037;-83
2022/05/31 00:09:08;;;;;;;6.13;3.90;;;;;;;;;;5012061;28;20433;-85
2022/05/31 00:11:36;;;;;;;6.70;4.30;;;;;;;;;;5009256;28;20076;-83
2022/05/31 00:14:03;;;;;;;6.93;4.60;;;;;;;;;;5006933;28;20033;-83
2022/05/31 00:16:28;;;;;;;5.22;3.72;;;;;;;;;;5009005;28;20433;-83
2022/05/31 00:18:54;;;;;;;8.88;4.85;;;;;;;;;;5008908;28;20038;-83
2022/05/31 00:21:24;;;;;;;7.85;4.25;;;;;;;;;;4992478;28;20030;-84
2022/05/31 00:23:49;;;;;;;7.80;4.18;;;;;;;;;;5009983;28;20045;-83
2022/05/31 00:26:15;;;;;;;7.60;4.47;;;;;;;;;;5009112;28;20026;-84
2022/05/31 00:28:40;;;;;;;6.90;4.40;;;;;;;;;;4990030;28;20371;-83
2022/05/31 00:31:07;;;;;;;8.63;4.22;;;;;;;;;;5010935;28;20112;-85
2022/05/31 00:33:33;;;;;;;7.47;4.65;;;;;;;;;;5008956;28;20033;-83
2022/05/31 00:35:58;;;;;;;5.53;4.32;;;;;;;;;;5011436;28;20581;-83
2022/05/31 00:38:24;;;;;;;6.15;3.88;;;;;;;;;;4992226;28;20362;-83
2022/05/31 00:40:49;;;;;;;9.02;4.15;;;;;;;;;;5007703;28;20030;-83
2022/05/31 00:43:22;;;;;;;9.38;4.55;;;;;;;;;;5011345;28;20040;-85
2022/05/31 00:46:02;;;;;;;8.57;4.55;;;;;;;;;;5011002;28;20363;-83
2022/05/31 00:48:30;;;;;;;8.38;5.40;;;;;;;;;;5012165;28;20037;-84
2022/05/31 00:51:06;;;;;;;9.20;4.80;;;;;;;;;;5009331;28;20072;-83
2022/05/31 00:53:35;;;;;;;8.02;4.75;;;;;;;;;;5008058;28;20369;-83
2022/05/31 00:56:04;;;;;;;6.55;4.05;;;;;;;;;;5009893;28;20033;-83
2022/05/31 00:58:38;;;;;;;9.93;3.80;;;;;;;;;;5008508;28;20030;-83
2022/05/31 01:01:10;;;;;;;6.68;4.38;;;;;;;;;;5006611;28;20267;-82
2022/05/31 01:03:38;;;;;;;5.85;4.10;;;;;;;;;;5009665;28;20037;-83
2022/05/31 01:06:05;;;;;;;5.40;4.13;;;;;;;;;;4990988;28;20184;-82
2022/05/31 01:08:31;;;;;;;6.00;4.32;;;;;;;;;;5005514;28;20080;-82
2022/05/31 01:10:57;;;;;;;7.85;4.40;;;;;;;;;;4991605;28;20085;-81
2022/05/31 01:13:23;;;;;;;7.45;3.97;;;;;;;;;;5005952;28;20168;-82
2022/05/31 01:15:50;;;;;;;7.88;4.68;;;;;;;;;;5002986;28;20533;-82
2022/05/31 01:18:16;;;;;;;7.00;3.85;;;;;;;;;;5007392;28;20024;-82
2022/05/31 01:20:42;;;;;;;7.50;4.68;;;;;;;;;;5007379;28;20037;-82
2022/05/31 01:23:17;;;;;;;10.30;4.63;;;;;;;;;;5005954;28;20041;-81
2022/05/31 01:26:04;;;;;;;6.30;4.00;;;;;;;;;;5009415;28;20026;-83
2022/05/31 01:28:49;;;;;;;6.45;4.25;;;;;;;;;;5010365;28;20148;-83
2022/05/31 01:31:40;;;;;;;6.72;4.57;;;;;;;;;;4992028;28;20022;-83
2022/05/31 01:34:34;;;;;;;6.28;4.00;;;;;;;;;;5005854;28;20034;-82
2022/05/31 01:37:00;;;;;;;5.40;4.10;;;;;;;;;;4989000;28;20077;-82
2022/05/31 01:39:25;;;;;;;8.02;4.20;;;;;;;;;;5010875;28;20057;-85
2022/05/31 01:42:11;;;;;;;7.13;4.35;;;;;;;;;;4993218;28;20478;-82
2022/05/31 01:44:43;;;;;;;7.70;4.13;;;;;;;;;;4989193;28;20030;-82
2022/05/31 01:47:08;;;;;;;9.55;3.80;;;;;;;;;;4989180;28;20034;-81
2022/05/31 01:49:39;;;;;;;9.40;4.10;;;;;;;;;;5005324;28;20080;-82
2022/05/31 01:52:06;;;;;;;6.85;3.78;;;;;;;;;;5009242;28;20042;-82
2022/05/31 01:54:33;;;;;;;6.20;3.30;;;;;;;;;;4990082;28;20061;-82
2022/05/31 01:57:01;;;;;;;6.70;3.95;;;;;;;;;;5007981;28;20052;-82
2022/05/31 01:59:31;;;;;;;9.90;4.95;;;;;;;;;;5002366;28;20075;-82
2022/05/31 02:01:59;;;;;;;7.32;4.38;;;;;;;;;;4992797;28;20512;-82
2022/05/31 02:04:25;;;;;;;7.40;4.05;;;;;;;;;;4986906;28;20022;-82
2022/05/31 02:07:10;;;;;;;5.85;3.42;;;;;;;;;;5009425;28;20359;-82
2022/05/31 02:09:36;;;;;;;6.40;4.20;;;;;;;;;;4987343;28;20486;-82
2022/05/31 02:12:02;;;;;;;8.30;4.18;;;;;;;;;;5004731;28;20037;-81
2022/05/31 02:14:28;;;;;;;9.48;4.30;;;;;;;;;;5009683;28;20025;-82
2022/05/31 02:16:53;;;;;;;5.22;4.22;;;;;;;;;;5005825;28;20026;-82
2022/05/31 02:19:28;;;;;;;6.93;4.35;;;;;;;;;;4989051;28;20470;-82
2022/05/31 02:21:56;;;;;;;7.05;4.10;;;;;;;;;;5006588;28;20026;-82
2022/05/31 02:24:23;;;;;;;7.97;3.95;;;;;;;;;;5005141;28;20084;-82
2022/05/31 02:26:49;;;;;;;5.57;3.70;;;;;;;;;;5007633;28;20044;-83
2022/05/31 02:29:17;;;;;;;7.32;4.40;;;;;;;;;;5012978;28;20026;-82
2022/05/31 02:31:44;;;;;;;7.78;4.10;;;;;;;;;;4993705;28;20022;-82
2022/05/31 02:34:11;;;;;;;5.80;3.70;;;;;;;;;;5010996;28;20029;-83
2022/05/31 02:36:37;;;;;;;5.82;4.10;;;;;;;;;;5012490;28;20050;-81
2022/05/31 02:39:04;;;;;;;7.03;4.13;;;;;;;;;;4993894;28;20033;-81
2022/05/31 02:41:30;;;;;;;7.82;4.03;;;;;;;;;;4996559;28;20029;-82
2022/05/31 02:43:56;;;;;;;6.22;3.75;;;;;;;;;;4994762;28;20026;-82
2022/05/31 02:46:22;;;;;;;5.80;3.83;;;;;;;;;;4992004;28;20367;-82
2022/05/31 02:48:48;;;;;;;7.93;4.47;;;;;;;;;;4991175;28;20112;-83
2022/05/31 02:51:13;;;;;;;6.88;4.30;;;;;;;;;;5008180;28;20121;-84
2022/05/31 02:53:40;;;;;;;7.20;4.00;;;;;;;;;;4996416;28;20076;-83
2022/05/31 02:56:06;;;;;;;6.18;4.57;;;;;;;;;;4992155;28;20120;-82
2022/05/31 02:58:32;;;;;;;7.45;4.72;;;;;;;;;;4992697;28;20032;-82
2022/05/31 03:00:58;;;;;;;6.95;3.72;;;;;;;;;;4990976;28;20030;-83
2022/05/31 03:03:23;;;;;;;5.47;3.97;;;;;;;;;;5014127;28;20025;-84
2022/05/31 03:05:50;;;;;;;7.65;3.70;;;;;;;;;;5011107;28;20500;-82
2022/05/31 03:08:16;;;;;;;6.68;4.43;;;;;;;;;;4993597;28;20034;-83
2022/05/31 03:10:50;;;;;;;9.65;4.07;;;;;;;;;;4993585;28;20031;-83
2022/05/31 03:13:19;;;;;;;6.00;4.20;;;;;;;;;;5007796;28;20552;-83
2022/05/31 03:15:45;;;;;;;6.25;4.38;;;;;;;;;;5012516;28;20026;-83
2022/05/31 03:18:25;;;;;;;4.97;3.85;;;;;;;;;;4987519;28;20042;-82
2022/05/31 03:20:53;;;;;;;9.90;4.10;;;;;;;;;;4986829;28;20026;-83
2022/05/31 03:23:25;;;;;;;7.13;4.35;;;;;;;;;;5006042;28;20038;-83
2022/05/31 03:25:53;;;;;;;7.63;4.50;;;;;;;;;;5008293;28;20029;-82
2022/05/31 03:28:20;;;;;;;5.43;3.85;;;;;;;;;;5010545;28;20084;-83
2022/05/31 03:30:46;;;;;;;8.35;5.03;;;;;;;;;;4992470;28;20022;-82
2022/05/31 03:33:13;;;;;;;6.90;4.25;;;;;;;;;;5012236;28;20363;-82
2022/05/31 03:35:38;;;;;;;8.02;4.05;;;;;;;;;;4993334;28;20142;-82
2022/05/31 03:38:04;;;;;;;9.27;4.30;;;;;;;;;;5010006;28;20083;-82
2022/05/31 03:43:14;;;;;;;4.82;3.92;;;;;;;;;;5011089;28;20037;-82
2022/05/31 03:45:42;;;;;;;6.40;4.20;;;;;;;;;;4993760;28;20034;-82
2022/05/31 03:48:10;;;;;;;6.13;4.63;;;;;;;;;;4993741;28;20109;-82
2022/05/31 03:50:38;;;;;;;10.00;4.68;;;;;;;;;;4992389;28;20026;-82
2022/05/31 03:53:08;;;;;;;8.88;4.95;;;;;;;;;;4992735;28;20057;-81
2022/05/31 03:55:42;;;;;;;9.45;4.65;;;;;;;;;;5003989;28;20489;-81
2022/05/31 03:58:08;;;;;;;9.05;5.18;;;;;;;;;;5010302;28;20053;-82
2022/05/31 04:00:35;;;;;;;13.77;7.03;;;;;;;;;;4990931;28;20033;-81
2022/05/31 04:03:00;;;;;;;15.98;6.55;;;;;;;;;;5009246;28;20037;-81
2022/05/31 04:05:27;;;;;;;8.80;5.03;;;;;;;;;;5012567;28;20533;-82
2022/05/31 04:07:54;;;;;;;9.60;5.88;;;;;;;;;;5009032;28;20033;-82
2022/05/31 04:10:20;;;;;;;9.05;6.25;;;;;;;;;;4993904;28;20033;-82
2022/05/31 04:12:46;;;;;;;9.05;5.22;;;;;;;;;;5009936;28;20033;-81
2022/05/31 04:15:12;;;;;;;9.05;6.57;;;;;;;;;;5009653;28;20096;-81
2022/05/31 04:17:37;;;;;;;8.45;5.65;;;;;;;;;;5011001;28;20108;-81
2022/05/31 04:20:03;;;;;;;12.32;5.68;;;;;;;;;;5009945;28;20041;-82
2022/05/31 04:22:29;;;;;;;10.50;6.32;;;;;;;;;;5008457;28;20021;-83
2022/05/31 04:24:57;;;;;;;8.27;6.10;;;;;;;;;;5010549;28;20386;-82
2022/05/31 04:27:23;;;;;;;9.45;6.10;;;;;;;;;;5009722;28;20779;-82
2022/05/31 04:29:48;;;;;;;9.23;6.13;;;;;;;;;;4991802;28;20108;-82
2022/05/31 04:32:16;;;;;;;9.07;5.90;;;;;;;;;;5006999;28;20036;-81
2022/05/31 04:34:42;;;;;;;9.05;5.53;;;;;;;;;;5011343;28;20030;-81
2022/05/31 04:37:09;;;;;;;8.57;5.82;;;;;;;;;;4991572;28;20084;-82
2022/05/31 04:39:34;;;;;;;11.48;5.93;;;;;;;;;;5010161;28;20567;-81
2022/05/31 04:42:00;;;;;;;7.13;5.38;;;;;;;;;;5007000;28;20034;-81
2022/05/31 04:44:26;;;;;;;8.27;6.07;;;;;;;;;;4989736;28;20367;-81
2022/05/31 04:46:51;;;;;;;7.03;5.50;;;;;;;;;;4988203;28;20066;-82
2022/05/31 04:49:17;;;;;;;11.35;6.88;;;;;;;;;;5001791;28;20105;-81
2022/05/31 04:51:43;;;;;;;12.40;6.25;;;;;;;;;;5008794;28;20019;-82
2022/05/31 04:54:09;;;;;;;9.55;5.95;;;;;;;;;;4989603;28;20026;-82
2022/05/31 04:56:35;;;;;;;8.82;5.43;;;;;;;;;;5005062;28;20033;-81
2022/05/31 04:59:00;;;;;;;8.02;6.43;;;;;;;;;;5002087;28;20177;-81
2022/05/31 05:01:26;;;;;;;13.68;6.85;;;;;;;;;;4989086;28;20030;-84
2022/05/31 05:03:54;;;;;;;11.88;6.10;;;;;;;;;;5009263;28;20053;-81
2022/05/31 05:06:21;;;;;;;12.82;5.78;;;;;;;;;;4989116;28;20119;-83
2022/05/31 05:08:47;;;;;;;11.73;6.53;;;;;;;;;;5004346;28;20382;-80
2022/05/31 05:11:15;;;;;;;13.73;5.75;;;;;;;;;;4988478;28;20026;-81
2022/05/31 05:13:41;;;;;;;10.55;6.18;;;;;;;;;;5005129;28;20030;-81
2022/05/31 05:16:08;;;;;;;11.10;6.35;;;;;;;;;;5004607;28;20033;-81
2022/05/31 05:18:34;;;;;;;11.57;6.22;;;;;;;;;;5008243;28;20021;-80
2022/05/31 05:21:04;;;;;;;10.43;5.55;;;;;;;;;;5007471;28;20038;-82
2022/05/31 05:23:30;;;;;;;9.68;5.93;;;;;;;;;;5008295;28;20123;-81
2022/05/31 05:25:57;;;;;;;11.23;6.43;;;;;;;;;;4990427;28;20119;-82
2022/05/31 05:31:31;;;;;;;12.27;6.10;;;;;;;;;;4920212;29;20066;-82
2022/05/31 05:33:58;;;;;;;8.02;6.00;;;;;;;;;;4982768;28;20056;-82
2022/05/31 05:36:24;;;;;;;13.27;6.25;;;;;;;;;;5006431;28;20050;-82
2022/05/31 05:38:49;;;;;;;10.77;6.40;;;;;;;;;;4989122;28;20112;-80
2022/05/31 05:41:16;;;;;;;9.60;6.18;;;;;;;;;;4989199;28;20121;-81
2022/05/31 05:43:42;;;;;;;18.15;13.95;;;;;;;;;;4987191;28;20041;-81
2022/05/31 05:46:24;;;;;;;24.92;17.73;;;;;;;;;;4986200;28;20046;-83
2022/05/31 05:48:51;;;;;;;15.85;9.60;;;;;;;;;;5008894;28;20049;-83
2022/05/31 05:51:25;;;;;;;11.85;6.75;;;;;;;;;;4986903;28;20473;-83
2022/05/31 05:53:52;;;;;;;9.20;5.82;;;;;;;;;;5007623;28;20493;-82
2022/05/31 05:56:18;;;;;;;10.20;5.57;;;;;;;;;;4984284;28;20022;-82
2022/05/31 05:58:45;;;;;;;8.85;5.95;;;;;;;;;;4990289;28;20021;-82
2022/05/31 06:01:26;;;;;;;12.70;6.72;;;;;;;;;;4989881;28;20716;-82
2022/05/31 06:04:12;;;;;;;12.00;6.78;;;;;;;;;;5008534;28;20033;-81
2022/05/31 06:06:40;;;;;;;8.90;5.35;;;;;;;;;;4996082;28;20030;-82
2022/05/31 06:09:19;;;;;;;9.88;5.72;;;;;;;;;;5016006;28;20104;-83
2022/05/31 06:11:49;;;;;;;9.13;6.05;;;;;;;;;;5012276;28;20041;-82
2022/05/31 06:14:20;;;;;;;12.45;6.85;;;;;;;;;;5015485;28;20421;-84
2022/05/31 06:16:59;;;;;;;15.70;6.20;;;;;;;;;;4995600;28;20044;-83
2022/05/31 06:19:37;;;;;;;10.32;4.97;;;;;;;;;;5008234;28;20057;-82
2022/05/31 06:22:05;;;;;;;10.70;5.85;;;;;;;;;;4989939;28;20425;-82
2022/05/31 06:24:32;;;;;;;12.30;6.25;;;;;;;;;;4997545;28;20026;-83
2022/05/31 06:26:58;;;;;;;16.90;6.60;;;;;;;;;;4996231;28;20073;-82
2022/05/31 06:29:23;;;;;;;19.35;11.45;;;;;;;;;;5013865;28;20482;-85
2022/05/31 06:31:49;;;;;;;35.05;20.30;;;;;;;;;;5011822;28;20041;-83
2022/05/31 06:34:16;;;;;;;12.35;7.35;;;;;;;;;;5015436;28;20441;-83
2022/05/31 06:36:42;;;;;;;14.70;6.15;;;;;;;;;;4996275;28;20048;-83
2022/05/31 06:39:08;;;;;;;9.13;5.65;;;;;;;;;;5011512;28;20026;-84
2022/05/31 06:41:35;;;;;;;10.63;6.30;;;;;;;;;;5008726;28;20026;-83
2022/05/31 06:44:00;;;;;;;9.23;5.32;;;;;;;;;;5005992;28;20425;-81
2022/05/31 06:46:26;;;;;;;11.20;5.90;;;;;;;;;;5013737;28;20029;-83
2022/05/31 06:48:53;;;;;;;30.70;23.88;;;;;;;;;;5011651;28;20026;-82
2022/05/31 06:56:53;;;;;;;12.85;6.05;;;;;;;;;;5011593;28;20099;-84
2022/05/31 06:59:19;;;;;;;9.07;6.00;;;;;;;;;;5010111;28;20480;-82
2022/05/31 07:01:47;;;;;;;12.82;6.10;;;;;;;;;;5011813;28;20029;-81
2022/05/31 07:04:13;;;;;;;8.73;5.20;;;;;;;;;;5010883;28;20108;-81
2022/05/31 07:06:39;;;;;;;14.20;7.80;;;;;;;;;;5007277;28;20109;-83
2022/05/31 07:09:05;;;;;;;8.20;5.38;;;;;;;;;;5010891;28;20525;-80
2022/05/31 07:11:30;;;;;;;9.88;5.63;;;;;;;;;;5008456;28;20387;-83
2022/05/31 07:13:56;;;;;;;11.18;5.70;;;;;;;;;;5010332;28;20037;-82
2022/05/31 07:16:22;;;;;;;9.07;5.75;;;;;;;;;;4996117;28;20112;-82
2022/05/31 07:18:50;;;;;;;11.55;6.20;;;;;;;;;;4993962;28;20029;-86
2022/05/31 07:21:16;;;;;;;17.35;8.60;;;;;;;;;;5007758;28;20038;-83
2022/05/31 07:23:41;;;;;;;11.40;5.60;;;;;;;;;;5010111;28;20026;-81
2022/05/31 07:26:09;;;;;;;10.23;5.43;;;;;;;;;;4990209;28;20029;-81
2022/05/31 07:28:35;;;;;;;9.40;5.78;;;;;;;;;;5009202;28;20540;-80
2022/05/31 07:31:00;;;;;;;11.40;6.00;;;;;;;;;;5009264;28;20030;-82
2022/05/31 07:33:26;;;;;;;14.35;5.40;;;;;;;;;;5008130;28;20079;-82
2022/05/31 07:35:51;;;;;;;11.50;6.47;;;;;;;;;;5008276;28;20050;-82
2022/05/31 07:38:19;;;;;;;8.23;5.68;;;;;;;;;;5008383;28;20375;-82
2022/05/31 07:40:45;;;;;;;11.82;5.90;;;;;;;;;;4987985;28;20121;-83
2022/05/31 07:43:11;;;;;;;11.43;6.70;;;;;;;;;;5011761;28;20049;-83
2022/05/31 07:45:37;;;;;;;10.80;5.63;;;;;;;;;;5013284;28;20037;-80
2022/05/31 07:48:06;;;;;;;14.48;9.00;;;;;;;;;;5009322;28;20068;-81
2022/05/31 07:50:32;;;;;;;16.95;11.65;;;;;;;;;;5007531;28;20068;-84
2022/05/31 07:52:59;;;;;;;11.73;5.90;;;;;;;;;;5011964;28;20034;-89
2022/05/31 07:55:25;;;;;;;14.20;6.22;;;;;;;;;;4996068;28;20033;-81
2022/05/31 08:00:35;;;;;;;9.10;5.55;;;;;;;;;;5008780;28;20040;-84
2022/05/31 08:03:00;;;;;;;8.05;5.90;;;;;;;;;;5005260;28;20034;-82
2022/05/31 08:05:26;;;;;;;13.02;7.28;;;;;;;;;;5011603;28;20057;-83
2022/05/31 08:07:51;;;;;;;10.07;6.13;;;;;;;;;;5014282;28;20478;-85
2022/05/31 08:10:19;;;;;;;10.60;5.82;;;;;;;;;;4991850;28;20034;-82
2022/05/31 08:12:44;;;;;;;11.07;5.82;;;;;;;;;;5010339;28;20033;-83
2022/05/31 08:15:10;;;;;;;16.33;7.53;;;;;;;;;;5011056;28;20034;-84
2022/05/31 08:17:36;;;;;;;12.30;7.10;;;;;;;;;;4995397;28;20053;-87
2022/05/31 08:20:04;;;;;;;14.60;7.05;;;;;;;;;;5010402;28;20080;-82
2022/05/31 08:22:30;;;;;;;14.30;7.55;;;;;;;;;;4990774;28;20063;-83
2022/05/31 08:24:55;;;;;;;12.50;6.10;;;;;;;;;;4993260;28;20021;-82
2022/05/31 08:27:21;;;;;;;10.00;6.90;;;;;;;;;;5007383;28;20026;-87
2022/05/31 08:29:46;;;;;;;10.45;6.75;;;;;;;;;;5009645;28;20546;-81
2022/05/31 08:32:12;;;;;;;11.10;6.13;;;;;;;;;;4992966;28;20018;-82
2022/05/31 08:34:38;;;;;;;10.65;6.32;;;;;;;;;;5010510;28;20703;-83
2022/05/31 08:37:03;;;;;;;8.70;5.63;;;;;;;;;;4991197;28;20033;-84
2022/05/31 08:39:29;;;;;;;9.98;6.13;;;;;;;;;;4993367;28;20535;-83
2022/05/31 08:42:22;;;;;;;12.65;5.60;;;;;;;;;;4992607;28;20033;-83
2022/05/31 08:44:53;;;;;;;8.07;5.85;;;;;;;;;;4989308;28;20064;-84
2022/05/31 08:47:38;;;;;;;13.45;5.20;;;;;;;;;;5004695;28;20066;-82
2022/05/31 08:53:10;;;;;;;;;;;;;;;;;;5009456;28;20053;-85
2022/05/31 08:59:11;;;;;;;7.05;4.72;;;;;;;;;;5002677;28;20083;-85
2022/05/31 09:01:59;;;;;;;7.80;4.80;;;;;;;;;;5007905;28;20474;-82
2022/05/31 09:05:04;;;;;;;7.80;5.05;;;;;;;;;;5006305;28;20030;-88
2022/05/31 09:07:59;;;;;;;10.00;4.97;;;;;;;;;;4972613;28;20045;-83
2022/05/31 09:10:43;;;;;;;7.13;4.97;;;;;;;;;;5004389;28;20041;-84
2022/05/31 09:13:11;;;;;;;12.48;5.28;;;;;;;;;;5005841;28;20859;-81
2022/05/31 09:15:44;;;;;;;8.20;4.85;;;;;;;;;;4992341;28;20032;-85
2022/05/31 09:18:45;;;;;;;10.98;6.00;;;;;;;;;;4992610;28;20033;-88
2022/05/31 09:21:20;;;;;;;11.77;5.13;;;;;;;;;;4986242;28;20046;-81
2022/05/31 09:23:46;;;;;;;11.88;5.05;;;;;;;;;;5009312;28;20029;-83
2022/05/31 09:26:14;;;;;;;9.80;5.03;;;;;;;;;;5009362;28;20060;-83
2022/05/31 09:29:01;;;;;;;12.60;5.50;;;;;;;;;;5008473;28;20101;-82
2022/05/31 09:32:04;;;;;;;9.27;6.40;;;;;;;;;;5008829;28;20032;-84
2022/05/31 09:35:14;;;;;;;10.68;5.70;;;;;;;;;;4991359;28;20030;-85
2022/05/31 09:38:03;;;;;;;10.40;5.63;;;;;;;;;;5001372;28;20065;-81
2022/05/31 09:40:41;;;;;;;7.05;5.40;;;;;;;;;;4990302;28;20482;-85
2022/05/31 09:43:30;;;;;;;8.50;5.18;;;;;;;;;;5006512;28;20040;-84
2022/05/31 09:46:05;;;;;;;10.80;5.75;;;;;;;;;;5010783;28;20032;-83
2022/05/31 09:48:31;;;;;;;9.75;5.15;;;;;;;;;;4986650;28;20056;-83
2022/05/31 09:51:18;;;;;;;10.02;5.38;;;;;;;;;;5010910;28;20474;-84
2022/05/31 09:59:23;;;;;;;10.45;5.35;;;;;;;;;;5007061;28;20496;-84
2022/05/31 10:01:48;;;;;;;8.93;4.90;;;;;;;;;;5010208;28;20026;-82
2022/05/31 10:04:29;;;;;;;9.18;5.30;;;;;;;;;;5011103;28;20031;-85
2022/05/31 10:07:01;;;;;;;6.82;4.72;;;;;;;;;;5009530;28;20018;-83
2022/05/31 10:09:35;;;;;;;9.82;4.55;;;;;;;;;;4988881;28;20030;-81
2022/05/31 10:12:11;;;;;;;5.90;4.53;;;;;;;;;;5009229;28;20113;-85
2022/05/31 10:14:41;;;;;;;7.60;4.13;;;;;;;;;;5010439;28;20037;-80
2022/05/31 10:17:43;;;;;;;6.57;4.20;;;;;;;;;;5005721;28;20034;-82
2022/05/31 10:20:13;;;;;;;7.70;4.35;;;;;;;;;;5006274;28;20050;-82
2022/05/31 10:22:54;;;;;;;8.77;4.40;;;;;;;;;;5009763;28;20026;-80
2022/05/31 10:25:23;;;;;;;5.93;4.00;;;;;;;;;;5009460;28;20083;-81
2022/05/31 10:27:54;;;;;;;8.20;4.40;;;;;;;;;;5008479;28;20048;-83
2022/05/31 10:30:22;;;;;;;7.00;4.30;;;;;;;;;;5008712;28;20266;-82
2022/05/31 10:32:56;;;;;;;8.93;5.32;;;;;;;;;;4991441;28;20026;-81
2022/05/31 10:35:29;;;;;;;7.05;4.22;;;;;;;;;;5006293;28;20046;-83
2022/05/31 10:37:59;;;;;;;7.13;4.32;;;;;;;;;;4990969;28;20393;-83
2022/05/31 10:40:48;;;;;;;9.05;3.63;;;;;;;;;;5007132;28;20033;-85
2022/05/31 10:43:22;;;;;;;6.05;3.75;;;;;;;;;;4969105;28;20038;-83
2022/05/31 10:45:48;;;;;;;9.23;4.35;;;;;;;;;;4991405;28;20044;-82
2022/05/31 10:48:14;;;;;;;6.50;3.78;;;;;;;;;;5013383;28;20034;-83
2022/05/31 10:51:00;;;;;;;8.38;3.88;;;;;;;;;;5010468;28;20059;-83
2022/05/31 10:53:47;;;;;;;8.70;4.47;;;;;;;;;;4992191;28;20034;-85
2022/05/31 10:56:16;;;;;;;8.73;3.70;;;;;;;;;;4989250;28;20049;-83
2022/05/31 10:58:58;;;;;;;9.10;4.35;;;;;;;;;;4992037;28;20466;-85
2022/05/31 11:01:26;;;;;;;10.68;4.25;;;;;;;;;;5007790;28;20031;-87
2022/05/31 11:04:10;;;;;;;5.35;3.72;;;;;;;;;;5013223;28;20107;-82
2022/05/31 11:06:58;;;;;;;9.45;5.43;;;;;;;;;;4993715;28;20401;-86
2022/05/31 11:12:26;;;;;;;6.35;3.80;;;;;;;;;;5014159;28;20061;-84
2022/05/31 11:15:10;;;;;;;6.53;3.78;;;;;;;;;;4991739;28;20049;-81
2022/05/31 11:18:00;;;;;;;5.85;3.47;;;;;;;;;;5012081;28;20029;-83
2022/05/31 11:20:52;;;;;;;6.50;4.32;;;;;;;;;;5009897;28;20555;-83
2022/05/31 11:23:30;;;;;;;8.43;4.15;;;;;;;;;;5009725;28;20022;-83
2022/05/31 11:26:37;;;;;;;5.75;3.28;;;;;;;;;;5009192;28;20065;-83
2022/05/31 11:29:35;;;;;;;5.22;3.03;;;;;;;;;;4892473;29;20477;-83
2022/05/31 11:32:17;;;;;;;4.70;2.92;;;;;;;;;;5004131;28;20105;-82
2022/05/31 11:34:59;;;;;;;6.03;3.10;;;;;;;;;;5011511;28;20025;-82
2022/05/31 11:38:09;;;;;;;5.03;3.40;;;;;;;;;;5013635;28;20117;-84
2022/05/31 11:41:33;;;;;;;4.32;3.22;;;;;;;;;;4950886;28;20057;-82
2022/05/31 11:44:20;;;;;;;7.10;3.55;;;;;;;;;;4934014;29;20059;-86
2022/05/31 11:47:01;;;;;;;6.32;3.33;;;;;;;;;;4992050;28;20037;-82
2022/05/31 11:49:46;;;;;;;7.10;3.85;;;;;;;;;;5009057;28;20084;-84
2022/05/31 11:52:44;;;;;;;7.97;3.70;;;;;;;;;;5008216;28;20026;-82
2022/05/31 11:55:50;;;;;;;6.03;2.92;;;;;;;;;;4991260;28;20557;-84
2022/05/31 11:58:24;;;;;;;7.88;2.92;;;;;;;;;;4950749;28;20095;-84
2022/05/31 12:01:04;;;;;;;8.60;3.10;;;;;;;;;;5009674;28;20026;-84
2022/05/31 12:04:01;;;;;;;6.28;2.80;;;;;;;;;;5007878;28;20033;-84
2022/05/31 12:06:45;;;;;;;5.70;2.83;;;;;;;;;;5004824;28;20462;-86
2022/05/31 12:09:17;;;;;;;6.07;2.90;;;;;;;;;;4993334;28;20076;-81
2022/05/31 12:11:42;;;;;;;4.20;2.40;;;;;;;;;;4993685;28;20044;-84
2022/05/31 12:14:12;;;;;;;4.28;2.30;;;;;;;;;;5007960;28;20063;-83
2022/05/31 12:16:39;;;;;;;4.90;2.88;;;;;;;;;;4993239;28;20044;-83
2022/05/31 12:19:15;;;;;;;6.25;2.70;;;;;;;;;;5009011;28;20108;-86
2022/05/31 12:21:47;;;;;;;6.82;2.67;;;;;;;;;;5006334;28;20026;-85
2022/05/31 12:24:18;;;;;;;3.92;2.30;;;;;;;;;;5011346;28;20057;-85
2022/05/31 12:27:10;;;;;;;4.43;2.60;;;;;;;;;;5008880;28;20043;-85
2022/05/31 12:30:05;;;;;;;5.28;2.58;;;;;;;;;;4993655;28;20026;-82
2022/05/31 12:32:36;;;;;;;7.60;2.58;;;;;;;;;;5000171;28;20054;-83
2022/05/31 12:35:04;;;;;;;4.72;2.70;;;;;;;;;;5005681;28;20061;-85
2022/05/31 12:38:09;;;;;;;5.82;3.13;;;;;;;;;;5011360;28;20038;-84
2022/05/31 12:40:35;;;;;;;7.07;3.42;;;;;;;;;;5008044;28;20028;-81
2022/05/31 12:43:05;;;;;;;4.90;2.75;;;;;;;;;;5008544;28;20034;-83
2022/05/31 12:45:34;;;;;;;4.88;2.55;;;;;;;;;;5007292;28;20172;-83
2022/05/31 12:48:22;;;;;;;3.67;2.67;;;;;;;;;;5006014;28;20084;-84
2022/05/31 12:51:08;;;;;;;4.10;2.53;;;;;;;;;;4992156;28;20367;-84
2022/05/31 12:53:39;;;;;;;6.53;2.75;;;;;;;;;;5008187;28;20430;-83
2022/05/31 12:56:10;;;;;;;5.00;2.42;;;;;;;;;;5008133;28;20083;-84
2022/05/31 12:58:45;;;;;;;4.68;2.42;;;;;;;;;;5009388;28;20029;-84
2022/05/31 13:01:10;;;;;;;4.13;2.58;;;;;;;;;;5007776;28;20465;-80
2022/05/31 13:03:42;;;;;;;4.30;2.30;;;;;;;;;;4992417;28;20105;-82
2022/05/31 13:06:40;;;;;;;4.20;2.47;;;;;;;;;;5008395;28;20058;-83
2022/05/31 13:09:25;;;;;;;6.82;3.33;;;;;;;;;;5004278;28;20038;-83
2022/05/31 13:20:56;;;;;;;6.88;2.97;;;;;;;;;;4998420;28;20111;-83
2022/05/31 13:23:37;;;;;;;5.43;2.88;;;;;;;;;;4999236;28;20084;-85
2022/05/31 13:26:11;;;;;;;6.88;2.90;;;;;;;;;;5008641;28;20024;-82
2022/05/31 13:28:56;;;;;;;4.85;2.78;;;;;;;;;;5010036;28;20560;-82
2022/05/31 13:31:25;;;;;;;4.43;2.25;;;;;;;;;;4989891;28;20050;-81
2022/05/31 13:34:04;;;;;;;5.93;3.03;;;;;;;;;;5010412;28;20449;-82
2022/05/31 13:36:41;;;;;;;4.68;2.53;;;;;;;;;;5005215;28;20061;-82
2022/05/31 13:39:13;;;;;;;3.90;2.72;;;;;;;;;;5008586;28;20030;-82
2022/05/31 13:41:51;;;;;;;6.97;3.33;;;;;;;;;;5007781;28;20469;-82
2022/05/31 13:44:24;;;;;;;6.00;2.40;;;;;;;;;;5008983;28;20072;-82
2022/05/31 13:46:51;;;;;;;4.95;2.40;;;;;;;;;;4987709;28;20022;-82
2022/05/31 13:49:35;;;;;;;5.75;2.83;;;;;;;;;;5008093;28;20120;-82
2022/05/31 13:52:25;;;;;;;6.35;2.38;;;;;;;;;;4990861;28;20026;-82
2022/05/31 13:54:54;;;;;;;5.03;3.10;;;;;;;;;;5006797;28;20109;-82
2022/05/31 13:57:24;;;;;;;5.55;2.88;;;;;;;;;;4989304;28;20033;-83
2022/05/31 14:00:00;;;;;;;6.22;2.72;;;;;;;;;;5009684;28;20037;-82
2022/05/31 14:02:48;;;;;;;6.35;2.75;;;;;;;;;;5007382;28;20045;-80
2022/05/31 14:05:23;;;;;;;6.88;2.70;;;;;;;;;;5004780;28;20493;-82
2022/05/31 14:07:49;;;;;;;4.93;2.47;;;;;;;;;;4990278;28;20109;-82
2022/05/31 14:10:20;;;;;;;5.57;2.75;;;;;;;;;;5008716;28;20033;-82
2022/05/31 14:12:46;;;;;;;5.43;3.08;;;;;;;;;;5006523;28;20500;-83
2022/05/31 14:15:23;;;;;;;6.78;2.42;;;;;;;;;;5002969;28;20485;-82
2022/05/31 14:17:49;;;;;;;6.43;3.10;;;;;;;;;;5005256;28;20049;-82
2022/05/31 14:20:30;;;;;;;7.20;3.95;;;;;;;;;;5005414;28;20022;-81
2022/05/31 14:23:04;;;;;;;10.55;4.55;;;;;;;;;;5010502;28;20029;-82
2022/05/31 14:25:31;;;;;;;5.75;3.50;;;;;;;;;;5013426;28;20113;-84
2022/05/31 14:27:57;;;;;;;8.55;3.95;;;;;;;;;;4992138;28;20036;-84
2022/05/31 14:30:34;;;;;;;7.85;4.28;;;;;;;;;;4986044;28;20035;-81
2022/05/31 14:33:06;;;;;;;7.00;4.00;;;;;;;;;;5010643;28;20490;-82
2022/05/31 14:35:53;;;;;;;7.28;3.42;;;;;;;;;;4993626;28;20054;-83
2022/05/31 14:38:24;;;;;;;5.45;3.17;;;;;;;;;;5007958;28;20029;-82
2022/05/31 14:41:15;;;;;;;3.25;2.38;;;;;;;;;;5011042;28;20116;-82
2022/05/31 14:43:55;;;;;;;3.95;2.42;;;;;;;;;;4991489;28;20076;-84
2022/05/31 14:46:30;;;;;;;7.65;2.70;;;;;;;;;;4994093;28;20092;-84
2022/05/31 14:49:08;;;;;;;6.97;2.75;;;;;;;;;;4992422;28;20385;-81
2022/05/31 14:51:39;;;;;;;4.97;2.42;;;;;;;;;;5007134;28;20053;-83
2022/05/31 14:54:30;;;;;;;6.75;3.22;;;;;;;;;;5012173;28;20033;-85
2022/05/31 14:56:56;;;;;;;9.57;3.20;;;;;;;;;;4993305;28;20033;-83
2022/05/31 14:59:25;;;;;;;4.45;3.17;;;;;;;;;;5011157;28;20477;-90
2022/05/31 15:01:52;;;;;;;4.10;3.20;;;;;;;;;;5012297;28;20113;-84
2022/05/31 15:04:48;;;;;;;11.02;4.22;;;;;;;;;;5012087;28;20053;-87
2022/05/31 15:07:17;;;;;;;9.05;3.90;;;;;;;;;;4994303;28;20477;-86
2022/05/31 15:09:44;;;;;;;5.97;4.60;;;;;;;;;;5010791;28;20022;-85
2022/05/31 15:20:23;;;;;;;6.75;4.50;;;;;;;;;;5011569;28;20167;-84
2022/05/31 15:22:49;;;;;;;7.43;4.60;;;;;;;;;;5012590;28;20113;-86
2022/05/31 15:25:22;;;;;;;11.20;4.32;;;;;;;;;;5008595;28;20034;-87
2022/05/31 15:27:48;;;;;;;13.07;6.28;;;;;;;;;;4993611;28;20488;-89
2022/05/31 15:30:15;;;;;;;6.75;4.43;;;;;;;;;;5011182;28;20423;-84
2022/05/31 15:32:44;;;;;;;6.03;4.82;;;;;;;;;;4990103;28;20030;-87
2022/05/31 15:35:14;;;;;;;9.55;4.95;;;;;;;;;;5010782;28;20049;-85
2022/05/31 15:37:40;;;;;;;9.25;4.78;;;;;;;;;;5010931;28;20030;-82
2022/05/31 15:40:07;;;;;;;5.78;4.60;;;;;;;;;;5013194;28;20500;-83
2022/05/31 15:42:32;;;;;;;5.30;4.22;;;;;;;;;;5010734;28;20106;-85
2022/05/31 15:44:58;;;;;;;9.68;4.20;;;;;;;;;;4994484;28;20486;-82
2022/05/31 15:47:24;;;;;;;10.10;4.88;;;;;;;;;;5012643;28;20025;-83
2022/05/31 15:49:50;;;;;;;7.85;5.45;;;;;;;;;;4987575;28;20033;-85
2022/05/31 15:52:21;;;;;;;13.80;5.88;;;;;;;;;;5011853;28;20022;-85
2022/05/31 15:54:55;;;;;;;10.07;5.30;;;;;;;;;;5009827;28;20456;-83
2022/05/31 15:57:23;;;;;;;7.93;6.07;;;;;;;;;;5008025;28;20427;-85